Time;durP1;ratioP1;P1;durP2;ratioP2;P2;SDS_P1;SDS_P2;PMS_P1;PMS_P2;Temp;Humidity;BMP_temperature;BMP_pressure;BME280_temperature;BME280_humidity;BME280_pressure;Samples;Min_cycle;Max_cycle;Signal;HPM_P1;HPM_P2
2023/05/05 00:00:57;;;;;;;7.60;0.70;;;;;;;16.12;83.90;100937.59;7362499;19;20018;-67
2023/05/05 00:03:25;;;;;;;3.67;0.30;;;;;;;16.14;84.02;100940.91;7364723;19;20018;-65
2023/05/05 00:05:54;;;;;;;2.63;0.30;;;;;;;16.13;83.53;100941.91;7365718;19;20022;-67
2023/05/05 00:08:21;;;;;;;3.20;0.40;;;;;;;16.11;83.66;100942.09;7366633;19;20531;-65
2023/05/05 00:10:50;;;;;;;3.78;0.43;;;;;;;16.08;83.88;100939.81;7367566;19;21003;-65
2023/05/05 00:13:19;;;;;;;1.33;0.40;;;;;;;16.08;84.16;100941.66;7363966;19;20011;-65
2023/05/05 00:15:48;;;;;;;2.75;0.40;;;;;;;16.05;83.97;100934.84;7363361;19;20053;-65
2023/05/05 00:18:17;;;;;;;1.50;0.30;;;;;;;16.06;84.00;100935.69;7363667;19;20029;-65
2023/05/05 00:20:46;;;;;;;2.45;0.40;;;;;;;16.04;84.04;100937.72;7364596;19;20025;-66
2023/05/05 00:23:14;;;;;;;2.60;0.38;;;;;;;16.05;83.96;100934.06;7365627;19;20038;-66
2023/05/05 00:25:42;;;;;;;5.43;0.90;;;;;;;16.04;84.11;100924.44;7367422;19;20022;-66
2023/05/05 00:28:09;;;;;;;6.45;0.55;;;;;;;16.06;84.99;100925.91;7365583;19;20064;-66
2023/05/05 00:30:38;;;;;;;3.78;0.52;;;;;;;16.07;84.69;100911.63;7366571;19;20010;-65
2023/05/05 00:33:06;;;;;;;3.33;0.50;;;;;;;16.03;84.21;100920.97;7359998;19;20087;-64
2023/05/05 00:35:33;;;;;;;3.88;0.45;;;;;;;16.03;84.40;100915.66;7364949;19;20014;-66
2023/05/05 00:38:01;;;;;;;3.10;0.45;;;;;;;16.04;84.13;100914.66;7364201;19;20129;-65
2023/05/05 00:40:29;;;;;;;2.90;0.40;;;;;;;16.03;83.96;100904.22;7362439;19;20026;-66
2023/05/05 00:42:58;;;;;;;2.70;0.60;;;;;;;16.02;84.10;100908.69;7363247;19;20011;-65
2023/05/05 00:45:25;;;;;;;3.35;0.50;;;;;;;16.05;84.69;100910.19;7362128;19;20022;-65
2023/05/05 00:47:55;;;;;;;4.90;0.50;;;;;;;16.05;84.47;100907.53;7362755;19;20010;-66
2023/05/05 00:50:27;;;;;;;4.50;0.90;;;;;;;16.03;84.64;100912.19;7365598;19;20060;-64
2023/05/05 00:52:59;;;;;;;4.32;0.50;;;;;;;16.02;84.53;100910.53;7364315;19;20138;-65
2023/05/05 00:55:30;;;;;;;3.78;0.70;;;;;;;15.95;84.41;100917.59;7366139;19;20014;-65
2023/05/05 00:57:59;;;;;;;4.35;0.65;;;;;;;15.94;85.05;100908.81;7364434;19;20026;-65
2023/05/05 01:00:28;;;;;;;2.15;0.70;;;;;;;15.94;85.78;100911.47;7363931;19;20015;-65
2023/05/05 01:02:56;;;;;;;1.80;0.50;;;;;;;15.91;85.64;100909.16;7365115;19;20210;-65
2023/05/05 01:05:25;;;;;;;5.97;0.50;;;;;;;15.87;85.17;100915.03;7363143;19;20018;-65
2023/05/05 01:08:05;;;;;;;3.88;0.55;;;;;;;15.82;85.21;100916.41;7364387;19;20019;-65
2023/05/05 01:10:38;;;;;;;4.07;0.70;;;;;;;15.80;85.32;100921.06;7363577;19;20018;-65
2023/05/05 01:13:12;;;;;;;5.00;0.70;;;;;;;15.78;85.58;100909.84;7363709;19;20017;-64
2023/05/05 01:15:47;;;;;;;5.05;0.70;;;;;;;15.77;85.82;100918.81;7365955;19;21054;-65
2023/05/05 01:18:22;;;;;;;2.15;0.55;;;;;;;15.78;85.46;100912.50;7360389;19;20023;-64
2023/05/05 01:20:57;;;;;;;3.35;0.60;;;;;;;15.76;85.14;100916.31;7365718;19;20022;-64
2023/05/05 01:23:43;;;;;;;3.60;0.70;;;;;;;15.69;84.94;100921.56;7362826;19;20026;-66
2023/05/05 01:26:20;;;;;;;6.43;1.05;;;;;;;15.64;84.87;100923.94;7362999;19;20013;-65
2023/05/05 01:29:04;;;;;;;3.00;0.75;;;;;;;15.63;85.16;100917.00;7360696;19;20031;-65
2023/05/05 01:31:35;;;;;;;7.57;1.13;;;;;;;15.66;85.99;100921.09;7363896;19;20021;-65
2023/05/05 01:34:06;;;;;;;4.70;0.70;;;;;;;15.61;84.97;100910.19;7365952;19;20037;-66
2023/05/05 01:36:38;;;;;;;3.88;0.80;;;;;;;15.61;84.84;100919.00;7362643;19;20466;-65
2023/05/05 01:39:08;;;;;;;6.53;0.80;;;;;;;15.62;84.80;100923.28;7364414;19;20022;-64
2023/05/05 01:41:40;;;;;;;7.43;0.93;;;;;;;15.65;84.55;100928.22;7360943;19;20038;-66
2023/05/05 01:44:10;;;;;;;4.78;1.08;;;;;;;15.67;84.93;100920.09;7359606;19;20361;-65
2023/05/05 01:46:38;;;;;;;3.22;1.10;;;;;;;15.69;85.52;100910.94;7362168;19;20018;-64
2023/05/05 01:49:07;;;;;;;4.68;1.02;;;;;;;15.70;85.24;100912.56;7362142;19;20507;-65
2023/05/05 01:51:35;;;;;;;2.75;1.10;;;;;;;15.69;84.94;100907.47;7362322;19;20018;-66
2023/05/05 01:54:07;;;;;;;6.80;1.40;;;;;;;15.67;85.04;100906.81;7359895;19;20058;-65
2023/05/05 01:56:39;;;;;;;3.63;1.40;;;;;;;15.65;85.10;100906.16;7362716;19;20015;-65
2023/05/05 01:59:08;;;;;;;6.13;2.00;;;;;;;15.58;84.96;100905.28;7358237;19;20017;-64
2023/05/05 02:01:40;;;;;;;6.10;1.90;;;;;;;15.58;86.58;100907.94;7364060;19;20557;-65
2023/05/05 02:04:08;;;;;;;5.35;2.22;;;;;;;15.55;86.13;100916.22;7357697;19;20432;-65
2023/05/05 02:06:38;;;;;;;6.78;2.08;;;;;;;15.50;85.83;100913.28;7361888;19;20014;-65
2023/05/05 02:09:10;;;;;;;9.05;2.50;;;;;;;15.48;85.71;100910.00;7362743;19;20040;-65
2023/05/05 02:11:38;;;;;;;8.45;2.25;;;;;;;15.47;85.70;100911.81;7361144;19;20026;-64
2023/05/05 02:14:08;;;;;;;9.82;2.58;;;;;;;15.47;86.02;100905.69;7357196;19;20452;-65
2023/05/05 02:16:36;;;;;;;12.63;2.70;;;;;;;15.48;86.67;100910.00;7358564;19;20018;-65
2023/05/05 02:19:04;;;;;;;7.63;2.63;;;;;;;15.50;86.68;100911.44;7355118;19;20022;-65
2023/05/05 02:21:33;;;;;;;10.15;2.55;;;;;;;15.50;85.99;100918.59;7361618;19;20023;-63
2023/05/05 02:24:00;;;;;;;10.57;2.40;;;;;;;15.49;85.95;100915.09;7360162;19;20577;-65
2023/05/05 02:26:30;;;;;;;5.20;2.00;;;;;;;15.48;85.87;100918.78;7364570;19;20018;-65
2023/05/05 02:29:03;;;;;;;7.80;1.90;;;;;;;15.47;85.99;100914.47;7360214;19;20040;-65
2023/05/05 02:31:35;;;;;;;17.30;3.05;;;;;;;15.46;86.31;100914.66;7361504;19;20135;-70
2023/05/05 02:34:04;;;;;;;8.50;1.00;;;;;;;15.45;86.01;100913.81;7361580;19;20130;-65
2023/05/05 02:36:36;;;;;;;3.47;1.00;;;;;;;15.45;86.05;100905.88;7360705;19;20014;-65
2023/05/05 02:39:13;;;;;;;5.85;1.10;;;;;;;15.41;86.00;100910.72;7361347;19;20015;-65
2023/05/05 02:41:44;;;;;;;5.95;1.25;;;;;;;15.38;86.13;100911.09;7361223;19;20755;-66
2023/05/05 02:44:12;;;;;;;5.80;1.05;;;;;;;15.36;86.44;100915.75;7361468;19;20039;-65
2023/05/05 02:46:39;;;;;;;6.45;1.00;;;;;;;15.37;86.75;100916.56;7361110;19;20018;-66
2023/05/05 02:49:07;;;;;;;9.10;1.13;;;;;;;15.37;87.23;100917.41;7358552;19;20017;-65
2023/05/05 02:51:34;;;;;;;6.18;1.13;;;;;;;15.40;86.81;100924.16;7364158;19;20009;-65
2023/05/05 02:54:03;;;;;;;8.38;1.23;;;;;;;15.39;86.54;100925.97;7361020;19;20013;-64
2023/05/05 02:56:36;;;;;;;7.82;0.95;;;;;;;15.39;86.36;100920.69;7363362;19;20015;-65
2023/05/05 02:59:13;;;;;;;5.97;1.13;;;;;;;15.39;86.43;100922.50;7355680;19;20094;-65
2023/05/05 03:01:55;;;;;;;7.55;1.33;;;;;;;15.40;86.53;100914.38;7359384;19;20731;-64
2023/05/05 03:04:28;;;;;;;6.63;0.90;;;;;;;15.41;87.61;100923.16;7359647;19;20025;-66
2023/05/05 03:06:58;;;;;;;5.35;0.63;;;;;;;15.40;87.09;100916.19;7360187;19;20015;-66
2023/05/05 03:09:35;;;;;;;8.13;1.00;;;;;;;15.37;86.70;100924.53;7361192;19;20026;-64
2023/05/05 03:12:06;;;;;;;8.73;1.63;;;;;;;15.34;86.60;100914.28;7359898;19;20018;-63
2023/05/05 03:14:37;;;;;;;8.23;1.10;;;;;;;15.31;86.87;100912.81;7354272;19;20018;-65
2023/05/05 03:17:06;;;;;;;6.20;1.02;;;;;;;15.26;87.20;100919.66;7361105;19;20025;-65
2023/05/05 03:19:34;;;;;;;6.30;1.20;;;;;;;15.27;87.68;100913.38;7358517;19;21769;-65
2023/05/05 03:22:03;;;;;;;9.00;0.93;;;;;;;15.30;87.80;100915.63;7362391;19;20019;-65
2023/05/05 03:24:30;;;;;;;6.93;1.42;;;;;;;15.30;87.56;100902.38;7357288;19;20014;-65
2023/05/05 03:26:57;;;;;;;7.68;1.27;;;;;;;15.28;87.62;100910.53;7360248;19;20134;-65
2023/05/05 03:29:24;;;;;;;4.00;0.73;;;;;;;15.27;87.68;100916.84;7356613;19;20011;-65
2023/05/05 03:31:52;;;;;;;9.30;1.25;;;;;;;15.28;87.75;100915.84;7358997;19;21726;-65
2023/05/05 03:34:19;;;;;;;9.88;1.25;;;;;;;15.28;88.27;100909.72;7359312;19;21181;-64
2023/05/05 03:36:46;;;;;;;7.38;1.20;;;;;;;15.31;88.64;100907.53;7358726;19;20026;-65
2023/05/05 03:39:13;;;;;;;7.22;1.00;;;;;;;15.32;88.15;100906.53;7358055;19;20419;-65
2023/05/05 03:41:41;;;;;;;7.45;0.70;;;;;;;15.30;88.52;100903.22;7361400;19;20014;-65
2023/05/05 03:44:08;;;;;;;4.72;0.70;;;;;;;15.31;88.33;100904.88;7355114;19;20113;-64
2023/05/05 03:46:35;;;;;;;10.25;0.75;;;;;;;15.33;88.32;100904.69;7358676;19;20482;-65
2023/05/05 03:49:02;;;;;;;5.55;1.00;;;;;;;15.36;88.49;100906.97;7355449;19;21412;-65
2023/05/05 03:51:30;;;;;;;9.00;0.80;;;;;;;15.36;88.84;100896.38;7360016;19;20023;-65
2023/05/05 03:53:57;;;;;;;6.95;0.70;;;;;;;15.35;88.73;100895.53;7357312;19;20911;-65
2023/05/05 03:56:25;;;;;;;5.70;1.20;;;;;;;15.36;88.63;100899.00;7361887;19;20477;-65
2023/05/05 03:58:52;;;;;;;11.60;1.17;;;;;;;15.38;88.68;100900.50;7354441;19;20651;-63
2023/05/05 04:01:20;;;;;;;7.75;0.75;;;;;;;15.38;88.70;100895.19;7359841;19;20018;-65
2023/05/05 04:03:47;;;;;;;10.13;1.00;;;;;;;15.38;88.68;100894.38;7358058;19;20022;-65
2023/05/05 04:06:15;;;;;;;9.00;0.90;;;;;;;15.37;89.95;100885.59;7360922;19;20090;-65
2023/05/05 04:08:43;;;;;;;5.15;1.30;;;;;;;15.38;89.72;100900.50;7360010;19;20015;-65
2023/05/05 04:11:10;;;;;;;4.20;1.27;;;;;;;15.40;89.28;100903.78;7360578;19;20098;-65
2023/05/05 04:13:38;;;;;;;8.98;1.25;;;;;;;15.40;89.32;100905.59;7358768;19;20016;-66
2023/05/05 04:16:05;;;;;;;11.75;1.77;;;;;;;15.41;89.07;100904.59;7358525;19;20122;-65
2023/05/05 04:18:33;;;;;;;8.50;1.73;;;;;;;15.40;89.29;100905.59;7354392;19;20388;-65
2023/05/05 04:21:00;;;;;;;8.90;2.15;;;;;;;15.41;89.03;100905.41;7359216;19;20021;-65
2023/05/05 04:23:27;;;;;;;9.35;2.00;;;;;;;15.44;90.01;100906.06;7357959;19;20025;-64
2023/05/05 04:25:54;;;;;;;6.70;1.10;;;;;;;15.44;89.54;100906.88;7358174;19;20018;-64
2023/05/05 04:28:22;;;;;;;8.40;1.33;;;;;;;15.46;89.43;100919.97;7356522;19;20023;-66
2023/05/05 04:30:49;;;;;;;11.93;1.45;;;;;;;15.45;89.29;100913.81;7355677;19;20390;-66
2023/05/05 04:33:16;;;;;;;7.18;1.35;;;;;;;15.43;89.01;100907.91;7359083;19;20014;-65
2023/05/05 04:35:43;;;;;;;8.07;1.20;;;;;;;15.43;89.37;100909.72;7360479;19;20010;-66
2023/05/05 04:38:10;;;;;;;10.13;1.90;;;;;;;15.43;89.70;100909.72;7357568;19;20011;-65
2023/05/05 04:40:40;;;;;;;5.53;1.90;;;;;;;15.43;90.05;100909.72;7357462;19;20477;-64
2023/05/05 04:43:07;;;;;;;11.85;2.08;;;;;;;15.40;89.80;100908.25;7362886;19;20018;-65
2023/05/05 04:45:34;;;;;;;9.27;2.17;;;;;;;15.40;89.52;100918.84;7363102;19;20476;-64
2023/05/05 04:48:03;;;;;;;8.00;2.35;;;;;;;15.37;89.54;100919.22;7361234;19;20472;-64
2023/05/05 04:50:31;;;;;;;13.40;2.92;;;;;;;15.30;89.72;100913.81;7363896;19;20692;-65
2023/05/05 04:52:58;;;;;;;11.90;3.22;;;;;;;15.28;89.95;100915.84;7365458;19;20022;-65
2023/05/05 04:55:26;;;;;;;11.70;3.00;;;;;;;15.27;90.32;100910.72;7364769;19;20027;-65
2023/05/05 04:57:53;;;;;;;15.70;3.47;;;;;;;15.26;90.28;100917.00;7364408;19;20021;-65
2023/05/05 05:00:20;;;;;;;10.52;2.58;;;;;;;15.23;90.47;100920.88;7361195;19;20646;-65
2023/05/05 05:02:48;;;;;;;10.60;3.28;;;;;;;15.22;90.60;100924.50;7365773;19;20522;-66
2023/05/05 05:05:15;;;;;;;9.27;3.10;;;;;;;15.23;90.62;100928.81;7362243;19;20018;-64
2023/05/05 05:07:43;;;;;;;10.30;3.15;;;;;;;15.22;90.71;100921.03;7364388;19;20018;-66
2023/05/05 05:10:10;;;;;;;14.02;3.15;;;;;;;15.24;90.97;100927.78;7362968;19;20033;-66
2023/05/05 05:12:38;;;;;;;9.32;3.03;;;;;;;15.28;91.23;100925.63;7364862;19;20044;-66
2023/05/05 05:15:06;;;;;;;14.30;2.80;;;;;;;15.27;90.85;100929.28;7361533;19;20029;-65
2023/05/05 05:17:33;;;;;;;11.10;2.85;;;;;;;15.32;90.43;100930.38;7360108;19;20026;-64
2023/05/05 05:20:03;;;;;;;13.57;3.08;;;;;;;15.36;90.18;100928.19;7360810;19;20014;-65
2023/05/05 05:22:31;;;;;;;14.65;2.90;;;;;;;15.41;90.21;100931.13;7367823;19;20029;-65
2023/05/05 05:24:58;;;;;;;9.07;2.72;;;;;;;15.46;90.09;100930.56;7362456;19;20506;-65
2023/05/05 05:27:25;;;;;;;17.25;3.80;;;;;;;15.50;90.04;100932.66;7366964;19;20689;-65
2023/05/05 05:29:52;;;;;;;13.55;3.47;;;;;;;15.54;89.61;100936.66;7359346;19;20099;-66
2023/05/05 05:32:20;;;;;;;13.00;3.15;;;;;;;15.59;89.98;100933.47;7364689;19;20018;-65
2023/05/05 05:34:47;;;;;;;18.40;4.53;;;;;;;15.65;91.23;100936.19;7363407;19;20174;-65
2023/05/05 05:37:14;;;;;;;68.45;8.40;;;;;;;15.73;93.01;100944.06;7363114;19;20025;-65
2023/05/05 05:39:42;;;;;;;11.30;3.95;;;;;;;15.78;93.14;100941.69;7358733;19;20022;-65
2023/05/05 05:42:09;;;;;;;10.55;2.50;;;;;;;15.77;91.82;100945.34;7364611;19;20023;-65
2023/05/05 05:44:36;;;;;;;9.88;3.55;;;;;;;15.76;91.46;100948.16;7361815;19;20022;-65
2023/05/05 05:47:04;;;;;;;14.65;2.55;;;;;;;15.72;90.78;100944.25;7365428;19;21331;-65
2023/05/05 05:49:31;;;;;;;17.83;4.05;;;;;;;15.74;90.73;100942.25;7361036;19;20021;-66
2023/05/05 05:51:58;;;;;;;14.38;3.22;;;;;;;15.77;91.10;100939.19;7364329;19;20347;-64
2023/05/05 05:54:26;;;;;;;8.32;3.13;;;;;;;15.81;91.16;100940.47;7362269;19;20014;-64
2023/05/05 05:56:53;;;;;;;11.95;2.72;;;;;;;15.82;90.43;100942.97;7364381;19;20025;-64
2023/05/05 05:59:21;;;;;;;9.48;2.60;;;;;;;15.84;89.68;100953.41;7359154;19;20013;-65
2023/05/05 06:01:48;;;;;;;10.13;2.90;;;;;;;15.84;89.70;100953.41;7366013;19;21026;-65
2023/05/05 06:04:15;;;;;;;10.75;2.72;;;;;;;15.82;89.27;100955.41;7363034;19;20693;-67
2023/05/05 06:06:43;;;;;;;7.82;3.40;;;;;;;15.81;89.19;100945.78;7362323;19;20077;-65
2023/05/05 06:09:10;;;;;;;11.18;2.80;;;;;;;15.82;89.44;100950.09;7361195;19;20014;-66
2023/05/05 06:11:37;;;;;;;8.27;2.85;;;;;;;15.83;90.47;100957.88;7361562;19;20948;-64
2023/05/05 06:14:05;;;;;;;12.35;3.05;;;;;;;15.87;90.50;100957.50;7361404;19;20022;-65
2023/05/05 06:16:32;;;;;;;13.40;3.40;;;;;;;15.89;90.33;100958.16;7363072;19;20018;-65
2023/05/05 06:19:00;;;;;;;12.93;2.90;;;;;;;15.90;90.54;100963.25;7360096;19;20018;-65
2023/05/05 06:21:27;;;;;;;10.07;3.50;;;;;;;15.89;89.89;100951.00;7362514;19;20089;-65
2023/05/05 06:23:54;;;;;;;9.82;3.45;;;;;;;15.91;90.03;100953.47;7360854;19;20022;-65
2023/05/05 06:26:21;;;;;;;9.50;2.85;;;;;;;15.91;90.05;100948.16;7360120;19;20323;-65
2023/05/05 06:28:49;;;;;;;11.30;2.97;;;;;;;15.93;89.58;100946.16;7359162;19;20019;-65
2023/05/05 06:31:17;;;;;;;14.10;3.75;;;;;;;15.95;89.40;100941.50;7359579;19;20442;-65
2023/05/05 06:33:44;;;;;;;10.10;3.25;;;;;;;15.96;89.14;100940.47;7360851;19;20018;-65
2023/05/05 06:36:12;;;;;;;12.63;3.90;;;;;;;15.96;89.31;100937.81;7360411;19;20014;-65
2023/05/05 06:38:39;;;;;;;13.15;3.80;;;;;;;16.07;90.10;100943.47;7357503;19;20010;-66
2023/05/05 06:41:07;;;;;;;9.65;2.83;;;;;;;16.26;89.71;100950.84;7360358;19;20014;-65
2023/05/05 06:43:34;;;;;;;11.52;2.95;;;;;;;16.38;88.87;100953.84;7362309;19;21958;-64
2023/05/05 06:46:01;;;;;;;12.90;2.58;;;;;;;16.38;87.33;100953.03;7355999;19;21594;-64
2023/05/05 06:48:29;;;;;;;8.13;2.33;;;;;;;16.42;86.88;100954.28;7357793;19;20014;-66
2023/05/05 06:50:56;;;;;;;9.60;2.13;;;;;;;16.45;87.33;100962.72;7355002;19;20371;-64
2023/05/05 06:53:24;;;;;;;5.05;1.85;;;;;;;16.47;86.18;100968.66;7359896;19;20493;-65
2023/05/05 06:55:51;;;;;;;10.55;1.90;;;;;;;16.51;86.33;100969.91;7358981;19;20040;-65
2023/05/05 06:58:19;;;;;;;4.60;1.70;;;;;;;16.55;86.36;100971.22;7358538;19;20024;-66
2023/05/05 07:00:47;;;;;;;6.43;1.77;;;;;;;16.55;85.91;100975.69;7357599;19;20031;-65
2023/05/05 07:03:14;;;;;;;7.70;1.45;;;;;;;16.59;85.87;100974.34;7358424;19;20305;-66
2023/05/05 07:05:42;;;;;;;8.40;1.38;;;;;;;16.61;85.67;100983.75;7357816;19;21684;-66
2023/05/05 07:08:10;;;;;;;6.80;1.83;;;;;;;16.67;85.66;100983.00;7363138;19;20006;-65
2023/05/05 07:10:37;;;;;;;9.15;1.92;;;;;;;16.70;85.54;100996.94;7358085;19;20018;-65
2023/05/05 07:13:07;;;;;;;6.60;1.27;;;;;;;16.74;85.43;100990.22;7362573;19;20177;-65
2023/05/05 07:15:34;;;;;;;5.78;1.30;;;;;;;16.76;85.29;100989.00;7357161;19;20094;-66
2023/05/05 07:18:03;;;;;;;10.07;1.23;;;;;;;16.75;84.65;100992.69;7361211;19;20066;-65
2023/05/05 07:20:31;;;;;;;4.50;0.90;;;;;;;16.83;85.15;100986.44;7357536;19;20011;-64
2023/05/05 07:22:58;;;;;;;6.00;1.02;;;;;;;16.92;84.20;100994.09;7359255;19;21036;-65
2023/05/05 07:25:25;;;;;;;9.10;1.20;;;;;;;17.01;83.67;100998.28;7359069;19;20082;-66
2023/05/05 07:27:53;;;;;;;10.85;1.20;;;;;;;16.97;82.43;100994.34;7356863;19;20418;-68
2023/05/05 07:30:20;;;;;;;4.47;1.02;;;;;;;16.95;83.13;101000.88;7356478;19;20511;-65
2023/05/05 07:32:49;;;;;;;8.60;1.05;;;;;;;16.88;83.13;101002.63;7355447;19;20060;-65
2023/05/05 07:35:18;;;;;;;3.58;0.82;;;;;;;16.85;82.71;101001.19;7357296;19;20018;-64
2023/05/05 07:37:46;;;;;;;9.77;0.88;;;;;;;16.88;83.43;100994.66;7358953;19;21774;-65
2023/05/05 07:40:13;;;;;;;8.48;1.20;;;;;;;16.87;84.12;100999.16;7355404;19;20490;-65
2023/05/05 07:42:41;;;;;;;5.53;1.05;;;;;;;16.84;83.30;101007.50;7358949;19;20021;-65
2023/05/05 07:45:08;;;;;;;4.05;1.20;;;;;;;16.86;83.57;101002.03;7352928;19;20162;-65
2023/05/05 07:47:36;;;;;;;8.25;1.10;;;;;;;16.89;82.76;100998.97;7355939;19;20045;-65
2023/05/05 07:50:04;;;;;;;6.03;0.75;;;;;;;16.94;81.21;101002.72;7355809;19;20018;-64
2023/05/05 07:52:32;;;;;;;6.97;0.60;;;;;;;17.05;81.25;101012.00;7361571;19;20022;-66
2023/05/05 07:55:15;;;;;;;;;;;;;;;17.05;79.93;101006.69;7356516;19;20050;-65
2023/05/05 07:57:42;;;;;;;6.45;0.70;;;;;;;17.05;80.06;101004.88;7358897;19;19994;-66
2023/05/05 08:00:12;;;;;;;9.75;1.80;;;;;;;17.08;80.43;100993.84;7353733;19;20443;-65
2023/05/05 08:02:40;;;;;;;3.85;0.52;;;;;;;17.12;79.35;101009.41;7357243;19;20537;-65
2023/05/05 08:05:07;;;;;;;8.90;0.65;;;;;;;17.21;79.59;100997.63;7351400;19;20029;-65
2023/05/05 08:07:39;;;;;;;5.78;0.50;;;;;;;17.26;78.97;101008.53;7357489;19;20022;-66
2023/05/05 08:10:10;;;;;;;6.03;0.80;;;;;;;17.25;78.26;101001.53;7357626;19;20041;-65
2023/05/05 08:12:38;;;;;;;7.47;0.55;;;;;;;17.27;78.01;101013.63;7358040;19;20023;-66
2023/05/05 08:15:07;;;;;;;3.55;0.50;;;;;;;17.26;77.44;101005.84;7354608;19;20981;-66
2023/05/05 08:17:41;;;;;;;5.13;0.40;;;;;;;17.28;77.74;101012.63;7359951;19;20021;-65
2023/05/05 08:20:09;;;;;;;7.13;0.50;;;;;;;17.28;76.54;101009.97;7360871;19;20014;-65
2023/05/05 08:22:37;;;;;;;5.43;0.55;;;;;;;17.33;76.30;101012.88;7367614;19;20015;-65
2023/05/05 08:25:05;;;;;;;9.73;0.63;;;;;;;17.44;76.05;101014.19;7361776;19;20353;-66
2023/05/05 08:27:34;;;;;;;5.60;0.60;;;;;;;17.68;75.90;101013.75;7367535;19;20014;-65
2023/05/05 08:30:02;;;;;;;6.30;0.70;;;;;;;17.84;74.55;101009.97;7364150;19;20609;-66
2023/05/05 08:32:30;;;;;;;7.22;0.60;;;;;;;17.99;74.01;101001.88;7364292;19;20018;-65
2023/05/05 08:34:57;;;;;;;6.15;0.50;;;;;;;18.20;72.96;101012.44;7363497;19;20014;-65
2023/05/05 08:37:25;;;;;;;5.88;0.57;;;;;;;18.32;72.60;101008.19;7367676;19;20010;-66
2023/05/05 08:39:53;;;;;;;4.05;0.75;;;;;;;18.43;72.74;101006.81;7366552;19;20037;-66
2023/05/05 08:42:20;;;;;;;2.45;0.43;;;;;;;18.48;70.95;101007.84;7367808;19;20014;-66
2023/05/05 08:45:02;;;;;;;4.00;0.53;;;;;;;18.53;71.47;101016.06;7364051;19;20025;-66
2023/05/05 08:47:31;;;;;;;7.03;0.52;;;;;;;18.58;71.81;101020.81;7363408;19;20053;-65
2023/05/05 08:50:00;;;;;;;5.28;0.82;;;;;;;18.59;71.13;101007.28;7362912;19;20527;-65
2023/05/05 08:52:37;;;;;;;2.45;0.60;;;;;;;18.59;70.33;101012.59;7363484;19;20026;-65
2023/05/05 08:55:14;;;;;;;4.80;0.55;;;;;;;18.61;69.85;101007.09;7363411;19;20473;-67
2023/05/05 08:57:50;;;;;;;4.40;0.40;;;;;;;18.67;70.29;101009.78;7364369;19;20011;-65
2023/05/05 09:00:19;;;;;;;5.68;0.90;;;;;;;18.78;69.42;101005.69;7356807;19;20377;-65
2023/05/05 09:02:47;;;;;;;6.70;1.10;;;;;;;18.92;69.51;101007.38;7363712;19;20022;-65
2023/05/05 09:05:16;;;;;;;3.67;0.55;;;;;;;19.08;69.60;101012.31;7360462;19;20025;-65
2023/05/05 09:07:45;;;;;;;3.85;0.60;;;;;;;19.17;69.50;101013.75;7364341;19;20366;-66
2023/05/05 09:10:13;;;;;;;5.70;0.57;;;;;;;19.25;67.71;101026.06;7361694;19;20111;-65
2023/05/05 09:12:41;;;;;;;3.38;0.60;;;;;;;19.35;68.30;101023.00;7363299;19;20093;-66
2023/05/05 09:15:11;;;;;;;2.78;0.60;;;;;;;19.35;67.46;101018.47;7355967;19;20014;-68
2023/05/05 09:17:39;;;;;;;3.58;0.60;;;;;;;19.30;67.47;101022.81;7362249;19;20046;-65
2023/05/05 09:20:09;;;;;;;5.10;0.70;;;;;;;19.21;67.08;101020.31;7325280;19;20082;-65
2023/05/05 09:22:39;;;;;;;2.35;0.50;;;;;;;19.10;66.88;101031.59;7332563;19;20014;-65
2023/05/05 09:25:11;;;;;;;7.40;0.50;;;;;;;19.14;66.62;101026.69;7355685;19;20022;-67
2023/05/05 09:27:41;;;;;;;4.32;0.60;;;;;;;19.21;65.96;101025.66;7356914;19;20022;-66
2023/05/05 09:30:14;;;;;;;6.97;0.73;;;;;;;19.23;65.90;101031.63;7358999;19;21047;-65
2023/05/05 09:32:44;;;;;;;;;;;;;;;19.25;65.91;101027.94;7356860;19;20261;-65
2023/05/05 09:35:12;;;;;;;3.42;0.57;;;;;;;19.22;65.71;101027.31;7356654;19;19930;-66
2023/05/05 09:37:40;;;;;;;3.58;0.50;;;;;;;19.23;65.91;101026.28;7359081;19;20043;-65
2023/05/05 09:40:09;;;;;;;6.22;1.15;;;;;;;19.22;66.03;101019.28;7354785;19;20015;-64
2023/05/05 09:42:37;;;;;;;7.95;0.98;;;;;;;19.29;66.11;101024.66;7357277;19;20164;-67
2023/05/05 09:45:25;;;;;;;4.18;1.00;;;;;;;19.27;66.15;101028.53;7356063;19;21962;-65
2023/05/05 09:47:53;;;;;;;5.63;0.90;;;;;;;19.17;67.10;101027.09;7357138;19;20019;-67
2023/05/05 09:50:29;;;;;;;7.50;0.90;;;;;;;19.14;67.99;101027.50;7356665;19;20046;-67
2023/05/05 09:52:58;;;;;;;6.65;0.90;;;;;;;19.11;69.05;101019.91;7358250;19;20043;-66
2023/05/05 09:55:27;;;;;;;7.15;0.90;;;;;;;19.14;68.52;101021.34;7354961;19;20431;-67
2023/05/05 09:57:54;;;;;;;2.90;1.08;;;;;;;19.20;67.53;101007.16;7360363;19;20026;-64
2023/05/05 10:00:37;;;;;;;3.45;0.90;;;;;;;19.25;67.62;101020.72;7353675;19;20955;-66
2023/05/05 10:03:04;;;;;;;7.97;1.10;;;;;;;19.24;66.73;101008.44;7359307;19;20018;-65
2023/05/05 10:05:32;;;;;;;9.52;1.58;;;;;;;19.37;66.20;101012.94;7358323;19;20493;-66
2023/05/05 10:08:12;;;;;;;2.92;0.88;;;;;;;19.46;64.81;101001.03;7358339;19;20074;-66
2023/05/05 10:10:49;;;;;;;7.25;1.02;;;;;;;19.56;63.70;101009.44;7357608;19;20018;-65
2023/05/05 10:13:19;;;;;;;7.78;0.85;;;;;;;19.74;63.68;101001.63;7359204;19;20098;-66
2023/05/05 10:15:51;;;;;;;6.70;0.80;;;;;;;20.00;63.12;100998.09;7356358;19;20010;-65
2023/05/05 10:18:21;;;;;;;10.77;1.02;;;;;;;20.19;61.64;101005.22;7358515;19;20011;-65
2023/05/05 10:20:56;;;;;;;3.30;0.57;;;;;;;20.27;60.57;101007.63;7356083;19;20599;-64
2023/05/05 10:23:37;;;;;;;10.45;0.50;;;;;;;20.30;60.67;101006.41;7353192;19;20015;-65
2023/05/05 10:26:06;;;;;;;8.80;0.60;;;;;;;20.33;60.48;101006.00;7356323;19;20038;-66
2023/05/05 10:28:43;;;;;;;7.50;0.47;;;;;;;20.32;59.92;100997.16;7360122;19;20010;-65
2023/05/05 10:31:19;;;;;;;4.78;0.30;;;;;;;20.35;59.74;101002.09;7359707;19;20025;-65
2023/05/05 10:34:01;;;;;;;2.80;0.33;;;;;;;20.40;59.82;100998.78;7359432;19;20106;-66
2023/05/05 10:36:29;;;;;;;2.90;0.35;;;;;;;20.46;59.64;100995.25;7354368;19;20017;-66
2023/05/05 10:38:59;;;;;;;5.15;0.40;;;;;;;20.47;58.58;100992.34;7358101;19;20019;-67
2023/05/05 10:41:30;;;;;;;2.60;0.25;;;;;;;20.48;59.36;100991.31;7357361;19;20660;-65
2023/05/05 10:43:58;;;;;;;4.43;0.20;;;;;;;20.45;59.28;100982.91;7353935;19;20097;-65
2023/05/05 10:46:29;;;;;;;4.15;0.30;;;;;;;20.33;58.41;100985.44;7358096;19;20041;-65
2023/05/05 10:49:08;;;;;;;6.50;0.40;;;;;;;20.15;59.33;100984.47;7354663;19;20055;-66
2023/05/05 10:51:53;;;;;;;4.22;0.68;;;;;;;19.99;60.55;100983.91;7354411;19;20032;-67
2023/05/05 10:54:27;;;;;;;2.67;0.30;;;;;;;19.83;60.38;100981.69;7352816;19;20054;-66
2023/05/05 10:56:57;;;;;;;3.75;0.32;;;;;;;19.75;61.72;100991.78;7356970;19;20022;-65
2023/05/05 10:59:31;;;;;;;6.90;0.30;;;;;;;19.72;62.58;100984.16;7354480;19;20011;-66
2023/05/05 11:01:58;;;;;;;2.42;0.40;;;;;;;19.64;63.17;100985.22;7358813;19;20010;-65
2023/05/05 11:04:26;;;;;;;3.88;0.30;;;;;;;19.66;63.74;100983.16;7357490;19;20113;-65
2023/05/05 11:06:59;;;;;;;3.38;0.73;;;;;;;19.79;64.14;100988.47;7360099;19;20018;-65
2023/05/05 11:09:28;;;;;;;3.40;0.47;;;;;;;19.96;64.47;100986.19;7356002;19;20051;-65
2023/05/05 11:12:01;;;;;;;2.55;0.30;;;;;;;20.06;64.55;100984.69;7356790;19;20011;-67
2023/05/05 11:14:28;;;;;;;3.40;0.85;;;;;;;20.12;64.26;100984.88;7352018;19;20014;-66
2023/05/05 11:16:56;;;;;;;6.32;0.90;;;;;;;20.10;64.61;100970.91;7358345;19;20023;-65
2023/05/05 11:19:43;;;;;;;6.20;0.43;;;;;;;19.99;64.25;100967.88;7354170;19;20017;-64
2023/05/05 11:22:11;;;;;;;7.43;0.55;;;;;;;19.88;64.89;100975.72;7354898;19;20014;-66
2023/05/05 11:24:39;;;;;;;5.55;1.15;;;;;;;19.77;65.63;100966.50;7352372;19;20019;-65
2023/05/05 11:27:07;;;;;;;4.60;0.50;;;;;;;19.68;66.28;100974.94;7361208;19;20356;-66
2023/05/05 11:29:51;;;;;;;6.32;0.70;;;;;;;19.55;66.63;100971.28;7355110;19;20079;-66
2023/05/05 11:32:19;;;;;;;3.55;0.40;;;;;;;19.43;67.28;100970.22;7357830;19;21599;-66
2023/05/05 11:34:48;;;;;;;7.40;0.43;;;;;;;19.32;68.32;100978.03;7352739;19;20132;-64